Bookmark and Share
Track history (hours):
 

Maersk Itea

Last reported at 2013-Mar-24 10:22 UTC. Time now 2014-Apr-20 08:56 UTC.
Position N 35°18' E 018°57'.
Warning: this ship's position is years out of date!

Length 241.9 m; beam 32.2 m; draft 12.5 m.

Type: Ship. MMSI: 636090190.

NotesDate/timePositionNaut miles runAvg speedWind from/ knotsBaromVisibWave heightAir tempDewpointWater temp
2013-Mar-24 10:22N 35°18' E 018°57'2 1.8
2013-Mar-24 09:04N 35°16' E 018°59'1 1.9
2013-Mar-24 08:33N 35°15' E 018°59'14 1.5
2013-Mar-23 23:26N 35°05' E 019°10'  
2013-Mar-20 00:32N 36°40' W 000°06'4815.8
2013-Mar-19 21:31N 36°32' W 001°05'2216.7
2013-Mar-19 20:11N 36°28' W 001°32'1216.2
2013-Mar-19 19:25N 36°26' W 001°47'16116.3
2013-Mar-19 09:33N 36°01' W 005°04'3917.3
2013-Mar-19 07:18N 35°54' W 005°52'2915.6
2013-Mar-19 05:27N 35°57' W 006°28'3615.6
2013-Mar-19 03:09N 36°06' W 007°10'  
2013-Mar-16 11:18N 49°39' W 003°48'0 0.0
2013-Mar-16 10:18N 49°39' W 003°48'0 0.0
2013-Mar-16 09:24N 49°39' W 003°48'4 4.6
2013-Mar-16 08:30N 49°41' W 003°43'1412.3
2013-Mar-16 07:22N 49°48' W 003°24'1213.5
2013-Mar-16 06:29N 49°54' W 003°08'1413.2
2013-Mar-16 05:23N 49°60' W 002°48'1315.5
2013-Mar-16 04:32N 50°03' W 002°28'1816.7
2013-Mar-16 03:28N 50°08' W 002°01'1514.3
2013-Mar-16 02:26N 50°12' W 001°39'6311.7
2013-Mar-15 21:06N 50°28' W 000°04'712.5
2013-Mar-15 20:33N 50°30' E 000°06'1813.8
2013-Mar-15 19:14N 50°35' E 000°34'1014.3
2013-Mar-15 18:34N 50°40' E 000°47'2713.6
2013-Mar-15 16:34N 50°57' E 001°20'1111.4
2013-Mar-15 15:33N 51°05' E 001°33'1110.5
2013-Mar-15 14:32N 51°13' E 001°45'1111.2
2013-Mar-15 13:34N 51°23' E 001°52'26 2.0
2013-Mar-15 00:19N 51°48' E 002°04'0 0.0
2013-Mar-14 21:27N 51°48' E 002°04'  

Dump ship's entire track history

sailing weather and tide predictions

Maersk Itea — ELTN2 — position and weather